Time;durP1;ratioP1;P1;durP2;ratioP2;P2;SDS_P1;SDS_P2;PMS_P1;PMS_P2;Temp;Humidity;BMP_temperature;BMP_pressure;BME280_temperature;BME280_humidity;BME280_pressure;Samples;Min_cycle;Max_cycle;Signal;HPM_P1;HPM_P2
2022/07/18 04:15:49;;;;;;;11.23;6.05;;;;;;;19.92;42.51;102115.88;5065190;28;20389;-80
2022/07/18 04:18:14;;;;;;;15.27;6.20;;;;;;;19.86;42.46;102122.41;5066540;28;20033;-81
2022/07/18 04:20:40;;;;;;;10.55;6.90;;;;;;;20.06;42.30;102115.84;5066748;28;20379;-83
2022/07/18 04:23:07;;;;;;;15.40;7.88;;;;;;;20.49;41.28;102119.13;5064158;28;20041;-86
2022/07/18 04:25:37;;;;;;;12.38;5.72;;;;;;;20.45;40.98;102127.31;5065885;28;20033;-82
2022/07/18 04:28:03;;;;;;;10.48;6.30;;;;;;;20.62;40.97;102124.38;5049373;28;20571;-88
2022/07/18 04:30:29;;;;;;;9.13;5.95;;;;;;;20.74;40.60;102131.44;5063934;28;20029;-89
2022/07/18 04:32:54;;;;;;;11.52;6.68;;;;;;;21.04;40.29;102127.66;5048397;28;20029;-88
2022/07/18 04:35:21;;;;;;;11.32;6.15;;;;;;;21.27;39.89;102126.94;5049109;28;20044;-87
2022/07/18 04:37:46;;;;;;;9.82;6.00;;;;;;;21.37;39.61;102140.28;5049010;28;20041;-86
2022/07/18 04:40:12;;;;;;;12.93;6.32;;;;;;;21.24;40.28;102144.69;5049789;28;20029;-94
2022/07/18 04:42:37;;;;;;;13.40;5.97;;;;;;;21.56;39.97;102145.09;5066591;28;20060;-83
2022/07/18 04:45:04;;;;;;;10.18;5.82;;;;;;;21.71;39.77;102149.25;5045630;28;20510;-83
2022/07/18 04:47:30;;;;;;;9.57;6.75;;;;;;;21.67;39.57;102153.91;5057610;28;20040;-84
2022/07/18 04:49:56;;;;;;;14.07;6.45;;;;;;;21.35;40.53;102153.56;5046856;28;20029;-88
2022/07/18 04:52:21;;;;;;;15.13;6.43;;;;;;;21.56;40.52;102161.75;5048701;28;20032;-83
2022/07/18 04:54:47;;;;;;;10.60;6.20;;;;;;;21.96;39.64;102164.16;5066582;28;20486;-93
2022/07/18 04:57:14;;;;;;;11.27;6.60;;;;;;;21.94;39.47;102159.00;5034090;28;20051;-89
2022/07/18 04:59:43;;;;;;;18.45;10.05;;;;;;;22.40;38.84;102157.41;5049451;28;20508;-94
2022/07/18 05:02:09;;;;;;;12.02;7.50;;;;;;;22.18;39.08;102164.28;5048582;28;20114;-90
2022/07/18 05:04:35;;;;;;;19.88;10.20;;;;;;;21.89;40.26;102174.28;5048852;28;20069;-92
2022/07/18 05:07:00;;;;;;;13.30;7.80;;;;;;;21.91;40.55;102177.63;5016099;28;20025;-91
2022/07/18 05:09:26;;;;;;;13.63;7.57;;;;;;;22.39;39.73;102167.13;5029992;28;20187;-92
2022/07/18 05:11:52;;;;;;;12.20;6.22;;;;;;;22.22;40.61;102172.78;5035582;28;20096;-86
2022/07/18 05:14:17;;;;;;;18.48;7.53;;;;;;;22.49;39.98;102183.94;5047578;28;20059;-86
2022/07/18 05:16:43;;;;;;;10.10;6.38;;;;;;;22.08;40.37;102167.69;5048561;28;20444;-85
2022/07/18 05:19:08;;;;;;;10.48;5.70;;;;;;;22.22;40.44;102168.38;5048873;28;20478;-84
2022/07/18 05:21:34;;;;;;;9.63;5.80;;;;;;;22.35;40.99;102189.41;5045647;28;20036;-90
2022/07/18 05:23:59;;;;;;;11.20;5.75;;;;;;;22.59;40.03;102182.28;5048475;28;20043;-88
2022/07/18 05:26:25;;;;;;;21.25;5.97;;;;;;;22.78;39.86;102180.91;5039003;28;20068;-96
2022/07/18 05:28:51;;;;;;;12.93;6.28;;;;;;;22.90;39.96;102187.91;5036301;28;20029;-85
2022/07/18 05:31:16;;;;;;;12.48;5.45;;;;;;;22.75;40.48;102191.69;5051355;28;20033;-87
2022/07/18 05:33:42;;;;;;;12.23;5.45;;;;;;;22.80;40.78;102176.34;5034442;28;20036;-89
2022/07/18 05:36:08;;;;;;;12.90;5.30;;;;;;;23.01;39.83;102189.72;5036714;28;20025;-85
2022/07/18 05:38:34;;;;;;;8.60;5.28;;;;;;;23.21;39.83;102202.25;5052439;28;20033;-95
2022/07/18 05:40:59;;;;;;;11.60;5.55;;;;;;;23.24;40.22;102209.09;5037492;28;20040;-89
2022/07/18 05:43:25;;;;;;;12.60;5.50;;;;;;;22.74;40.61;102205.84;5039816;28;20059;-92
2022/07/18 05:45:50;;;;;;;10.18;4.97;;;;;;;22.60;40.39;102212.97;5019893;28;20048;-88
2022/07/18 05:48:15;;;;;;;7.10;4.43;;;;;;;22.32;40.31;102208.09;5050647;28;20083;-90
2022/07/18 05:50:41;;;;;;;14.50;4.90;;;;;;;22.42;42.26;102201.19;5034337;28;20136;-90
2022/07/18 05:53:06;;;;;;;11.90;5.47;;;;;;;22.87;41.02;102203.97;5050741;28;20029;-84
2022/07/18 05:55:32;;;;;;;8.45;4.47;;;;;;;22.82;40.00;102195.56;5048813;28;20033;-84
2022/07/18 05:57:58;;;;;;;8.68;4.90;;;;;;;23.10;40.04;102197.78;5051079;28;20383;-84
2022/07/18 06:00:23;;;;;;;11.40;4.80;;;;;;;23.23;39.28;102188.94;5034807;28;20033;-85
2022/07/18 06:02:49;;;;;;;9.43;4.57;;;;;;;23.51;39.13;102196.38;5036144;28;20044;-96
2022/07/18 06:05:15;;;;;;;8.10;4.95;;;;;;;23.69;38.83;102189.63;5018697;28;20037;-88
2022/07/18 06:07:40;;;;;;;8.55;4.30;;;;;;;23.51;38.41;102183.16;5034463;28;20029;-91
2022/07/18 06:10:06;;;;;;;9.10;4.07;;;;;;;23.21;38.88;102191.69;5034970;28;20096;-85
2022/07/18 06:12:32;;;;;;;8.05;4.30;;;;;;;23.37;38.53;102191.31;5052436;28;20509;-85
2022/07/18 06:14:58;;;;;;;8.85;4.65;;;;;;;22.89;38.57;102171.22;5050706;28;20060;-85
2022/07/18 06:17:24;;;;;;;8.75;4.00;;;;;;;23.05;38.51;102199.09;5050450;28;20040;-94
2022/07/18 06:19:49;;;;;;;11.35;5.38;;;;;;;22.88;38.91;102195.94;5034594;28;20029;-87
2022/07/18 06:22:15;;;;;;;9.95;4.43;;;;;;;23.36;38.84;102195.75;5033409;28;20029;-81
2022/07/18 06:24:40;;;;;;;12.18;5.40;;;;;;;23.15;38.88;102185.06;5033048;28;20083;-89
2022/07/18 06:27:06;;;;;;;9.98;3.80;;;;;;;23.23;37.33;102189.75;5018063;28;20029;-89
2022/07/18 06:29:31;;;;;;;10.02;4.13;;;;;;;23.21;36.41;102209.34;5027715;28;20017;-94
2022/07/18 06:31:57;;;;;;;5.82;3.80;;;;;;;23.29;36.72;102199.81;5034299;28;20083;-93
2022/07/18 06:34:22;;;;;;;10.65;3.28;;;;;;;23.09;36.03;102190.81;5035124;28;20413;-88
2022/07/18 06:36:48;;;;;;;7.53;2.70;;;;;;;23.02;36.14;102207.25;5016681;28;20025;-81
2022/07/18 06:39:16;;;;;;;5.82;2.63;;;;;;;23.00;36.55;102194.16;5049414;28;20033;-88
2022/07/18 06:41:42;;;;;;;4.97;2.60;;;;;;;23.25;36.67;102184.34;5045894;28;20028;-93
2022/07/18 06:44:07;;;;;;;6.88;2.55;;;;;;;23.52;35.91;102192.75;5017172;28;20036;-89
2022/07/18 06:46:36;;;;;;;5.30;2.20;;;;;;;23.49;35.69;102195.63;5032323;28;20057;-93
2022/07/18 06:49:02;;;;;;;5.97;2.40;;;;;;;23.60;35.70;102177.19;5045309;28;21275;-84
2022/07/18 06:51:27;;;;;;;7.70;2.03;;;;;;;23.79;34.85;102180.97;5013045;28;20040;-90
2022/07/18 06:53:53;;;;;;;4.15;2.40;;;;;;;23.86;34.61;102182.16;5013679;28;20120;-80
2022/07/18 06:56:18;;;;;;;5.38;2.08;;;;;;;23.90;34.14;102175.69;5030486;28;20525;-86
2022/07/18 06:58:48;;;;;;;4.68;2.40;;;;;;;23.88;33.48;102162.56;5030483;28;20033;-82
2022/07/18 07:01:14;;;;;;;5.75;2.30;;;;;;;23.97;33.86;102161.81;5030510;28;20112;-85
2022/07/18 07:03:40;;;;;;;5.38;2.40;;;;;;;24.19;34.35;102157.44;5029781;28;20022;-83
2022/07/18 07:06:05;;;;;;;8.27;2.38;;;;;;;24.44;34.40;102158.91;5051308;28;20509;-90
2022/07/18 07:08:31;;;;;;;7.20;2.33;;;;;;;24.65;34.03;102159.75;5035636;28;20029;-84
2022/07/18 07:10:56;;;;;;;7.32;2.47;;;;;;;24.74;32.67;102161.63;5046950;28;20486;-90
2022/07/18 07:13:22;;;;;;;5.93;2.97;;;;;;;24.78;33.56;102165.69;5016820;28;20098;-85
2022/07/18 07:15:47;;;;;;;7.70;2.42;;;;;;;24.82;32.08;102166.25;5032650;28;20402;-84
2022/07/18 07:18:13;;;;;;;5.95;2.00;;;;;;;24.82;33.62;102169.75;5032638;28;20472;-85
2022/07/18 07:20:38;;;;;;;3.05;2.15;;;;;;;25.02;31.72;102175.19;5030187;28;20120;-88
2022/07/18 07:23:07;;;;;;;4.78;2.03;;;;;;;25.06;33.13;102166.00;5029274;28;20033;-86
2022/07/18 07:25:32;;;;;;;4.07;2.00;;;;;;;25.02;30.90;102157.47;5012796;28;20083;-85
2022/07/18 07:27:58;;;;;;;6.07;3.42;;;;;;;25.21;32.93;102166.50;5013039;28;20026;-84
2022/07/18 07:30:24;;;;;;;4.88;2.30;;;;;;;25.21;31.52;102169.97;5018357;28;20041;-95
2022/07/18 07:32:50;;;;;;;4.57;2.28;;;;;;;25.16;31.29;102153.63;5014226;28;20036;-93
2022/07/18 07:35:16;;;;;;;5.72;2.60;;;;;;;25.27;32.38;102168.59;5013409;28;20032;-94
2022/07/18 07:37:44;;;;;;;3.42;2.30;;;;;;;25.30;31.37;102160.41;4996578;28;20081;-87
2022/07/18 07:40:10;;;;;;;5.82;2.10;;;;;;;25.38;30.90;102165.88;5027967;28;20029;-93
2022/07/18 07:42:35;;;;;;;6.10;2.55;;;;;;;25.46;31.28;102156.25;5016169;28;20520;-81
2022/07/18 07:45:01;;;;;;;4.68;2.40;;;;;;;25.51;31.27;102152.38;5048087;28;20033;-83
2022/07/18 07:47:28;;;;;;;6.90;2.83;;;;;;;25.49;31.24;102143.72;5031852;28;20021;-83
2022/07/18 07:49:55;;;;;;;6.80;2.22;;;;;;;25.66;31.40;102158.94;5051077;28;20552;-95
2022/07/18 07:52:20;;;;;;;6.15;2.30;;;;;;;25.65;29.74;102158.09;5067072;28;20414;-91
2022/07/18 07:54:46;;;;;;;4.97;2.30;;;;;;;25.66;30.78;102156.28;5033427;28;20033;-91
2022/07/18 07:57:12;;;;;;;4.07;2.22;;;;;;;25.81;30.44;102152.31;5034841;28;20068;-91
2022/07/18 07:59:37;;;;;;;4.10;2.20;;;;;;;25.84;30.51;102159.16;5032758;28;20025;-93
2022/07/18 08:02:03;;;;;;;5.15;2.13;;;;;;;25.84;29.91;102156.50;5016385;28;20027;-89
2022/07/18 08:04:28;;;;;;;6.05;2.38;;;;;;;25.93;29.40;102153.88;5048547;28;20140;-91
2022/07/18 08:06:54;;;;;;;4.13;1.90;;;;;;;25.87;29.74;102159.75;5033177;28;20029;-91
2022/07/18 08:09:19;;;;;;;6.28;2.05;;;;;;;25.90;30.12;102175.38;5031828;28;20032;-88
2022/07/18 08:11:45;;;;;;;5.53;2.22;;;;;;;25.86;29.67;102166.03;5028503;28;20032;-93
2022/07/18 08:14:10;;;;;;;4.05;2.05;;;;;;;25.78;30.08;102149.97;5025244;28;20053;-87
2022/07/18 08:16:36;;;;;;;6.25;2.25;;;;;;;26.03;29.43;102164.47;5043586;28;20044;-92
2022/07/18 08:19:02;;;;;;;4.78;2.22;;;;;;;26.09;29.27;102157.78;5048955;28;20095;-93
2022/07/18 08:21:27;;;;;;;4.20;2.00;;;;;;;26.28;29.33;102163.09;5032930;28;20025;-90
2022/07/18 08:23:53;;;;;;;6.30;2.10;;;;;;;26.53;28.28;102162.53;5032030;28;20082;-89
2022/07/18 08:26:18;;;;;;;3.90;2.13;;;;;;;26.71;28.33;102161.81;5032935;28;20426;-88
2022/07/18 08:28:43;;;;;;;3.63;2.10;;;;;;;26.64;27.75;102152.72;5049045;28;20036;-96
2022/07/18 08:31:09;;;;;;;5.20;2.20;;;;;;;26.77;27.88;102164.72;5052135;28;20029;-93
2022/07/18 08:33:35;;;;;;;5.10;2.40;;;;;;;26.99;27.79;102166.19;5016226;28;20051;-83
2022/07/18 08:36:00;;;;;;;9.15;4.13;;;;;;;26.99;27.75;102154.75;5049875;28;20025;-92
2022/07/18 08:38:26;;;;;;;8.52;2.40;;;;;;;26.97;27.77;102156.72;5030602;28;20036;-83
2022/07/18 08:40:52;;;;;;;4.18;2.13;;;;;;;26.96;28.43;102163.84;5047665;28;20528;-88
2022/07/18 08:43:18;;;;;;;3.28;2.30;;;;;;;27.03;27.86;102151.66;5032281;28;20024;-91
2022/07/18 08:45:43;;;;;;;3.42;2.00;;;;;;;27.09;27.42;102175.00;5031451;28;20040;-86
2022/07/18 08:48:09;;;;;;;2.70;2.00;;;;;;;26.76;27.64;102165.72;5016144;28;20021;-94
2022/07/18 08:50:34;;;;;;;4.45;2.30;;;;;;;26.71;28.88;102157.34;5031429;28;20478;-89
2022/07/18 08:53:00;;;;;;;4.28;2.33;;;;;;;26.98;28.15;102164.53;5041863;28;20041;-93
2022/07/18 08:55:26;;;;;;;6.85;2.35;;;;;;;27.11;27.75;102151.78;5030689;28;20033;-89
2022/07/18 08:57:55;;;;;;;5.55;2.13;;;;;;;27.19;28.27;102159.03;5050599;28;20028;-93
2022/07/18 09:00:23;;;;;;;3.38;2.20;;;;;;;27.25;27.50;102139.84;5020356;28;20029;-88
2022/07/18 09:03:01;;;;;;;4.07;2.38;;;;;;;27.39;28.17;102151.78;5051994;28;20029;-90
2022/07/18 09:05:27;;;;;;;5.10;2.55;;;;;;;27.35;27.78;102148.59;5034007;28;20029;-90
2022/07/18 09:08:12;;;;;;;6.18;2.60;;;;;;;27.50;26.88;102146.28;5048459;28;20036;-89
2022/07/18 09:10:51;;;;;;;4.38;2.38;;;;;;;27.57;28.10;102134.06;5043615;28;20399;-89
2022/07/18 09:13:21;;;;;;;5.13;3.05;;;;;;;27.59;27.46;102134.75;5050078;28;20029;-89
2022/07/18 09:16:16;;;;;;;7.80;5.13;;;;;;;27.85;27.07;102145.53;5015790;28;20045;-90
2022/07/18 09:18:42;;;;;;;4.68;2.97;;;;;;;27.66;28.13;102119.06;5029222;28;20044;-90
2022/07/18 09:21:09;;;;;;;4.05;2.28;;;;;;;27.88;26.78;102125.75;5033516;28;20144;-89
2022/07/18 09:23:36;;;;;;;4.45;2.20;;;;;;;28.09;26.22;102128.09;5015740;28;20034;-90
2022/07/18 09:26:02;;;;;;;8.73;4.30;;;;;;;28.36;26.79;102132.53;4999614;28;20029;-96
2022/07/18 09:28:28;;;;;;;8.95;6.28;;;;;;;28.35;26.96;102123.69;5015890;28;20087;-93
2022/07/18 09:30:57;;;;;;;5.95;2.92;;;;;;;28.40;26.06;102137.38;4999566;28;20033;-93
2022/07/18 09:33:23;;;;;;;5.20;2.90;;;;;;;28.31;25.56;102129.47;5000138;28;20035;-89
2022/07/18 09:35:54;;;;;;;4.72;2.92;;;;;;;28.41;25.80;102144.34;5014158;28;20025;-86
2022/07/18 09:38:20;;;;;;;5.30;2.90;;;;;;;28.42;26.17;102137.22;5032145;28;20116;-89
2022/07/18 09:40:50;;;;;;;6.22;2.90;;;;;;;28.41;26.50;102136.38;5014027;28;20549;-83
2022/07/18 09:43:18;;;;;;;8.10;3.00;;;;;;;28.59;26.74;102136.31;5015311;28;20482;-87
2022/07/18 09:45:46;;;;;;;4.22;2.50;;;;;;;28.81;24.71;102127.84;4998749;28;20032;-86
2022/07/18 09:48:14;;;;;;;6.10;2.72;;;;;;;29.00;25.25;102140.09;5012901;28;20430;-89
2022/07/18 09:50:49;;;;;;;5.55;2.95;;;;;;;28.98;24.88;102138.59;5012840;28;20025;-88
2022/07/18 09:53:47;;;;;;;6.28;2.90;;;;;;;28.96;26.42;102124.59;4997522;28;20029;-84
2022/07/18 09:56:21;;;;;;;5.60;2.53;;;;;;;28.93;25.36;102122.25;5028121;28;20429;-85
2022/07/18 09:58:53;;;;;;;11.30;2.50;;;;;;;28.79;24.82;102127.13;5013268;28;20029;-90
2022/07/18 10:01:18;;;;;;;5.28;3.10;;;;;;;28.81;24.65;102119.84;4996563;28;20112;-87
2022/07/18 10:03:44;;;;;;;5.53;2.70;;;;;;;29.11;25.08;102131.00;5028404;28;20633;-89
2022/07/18 10:06:10;;;;;;;7.53;2.90;;;;;;;29.30;25.10;102130.75;5013986;28;20060;-84
2022/07/18 10:08:35;;;;;;;5.63;2.75;;;;;;;29.32;24.57;102115.41;5013773;28;20398;-84
2022/07/18 10:11:02;;;;;;;4.75;2.95;;;;;;;29.30;25.27;102125.41;5010282;28;20033;-83
2022/07/18 10:13:29;;;;;;;4.25;2.92;;;;;;;29.35;24.56;102120.41;5006897;28;20029;-83
2022/07/18 10:15:54;;;;;;;4.38;3.00;;;;;;;29.36;24.16;102103.41;5008694;28;20036;-83
2022/07/18 10:18:21;;;;;;;6.72;2.88;;;;;;;29.33;24.85;102109.09;5019976;28;20040;-83
2022/07/18 10:21:01;;;;;;;3.30;2.75;;;;;;;29.33;25.32;102111.75;5017709;28;21057;-83
2022/07/18 10:23:32;;;;;;;8.27;4.95;;;;;;;29.36;25.04;102105.25;5036533;28;20033;-85
2022/07/18 10:26:14;;;;;;;12.00;8.02;;;;;;;29.59;24.23;102105.50;5020610;28;20518;-84
2022/07/18 10:28:58;;;;;;;8.90;6.85;;;;;;;29.55;24.38;102096.16;5023498;28;20509;-83
2022/07/18 10:31:27;;;;;;;3.65;3.05;;;;;;;29.65;24.54;102110.19;5035890;28;20021;-86
2022/07/18 10:34:12;;;;;;;6.10;3.28;;;;;;;29.61;24.13;102108.84;5034629;28;20032;-82
2022/07/18 10:36:50;;;;;;;6.65;3.40;;;;;;;29.82;24.57;102103.88;5036660;28;20610;-83
2022/07/18 10:39:20;;;;;;;8.75;3.47;;;;;;;29.88;24.24;102097.03;5034184;28;20052;-83
2022/07/18 10:41:45;;;;;;;5.53;3.53;;;;;;;30.23;24.20;102095.91;5035140;28;20068;-83
2022/07/18 10:44:26;;;;;;;6.20;3.30;;;;;;;30.21;23.26;102088.06;5034481;28;20110;-85
2022/07/18 10:47:17;;;;;;;5.05;3.30;;;;;;;30.38;23.22;102096.03;5033860;28;20060;-85
2022/07/18 10:49:46;;;;;;;5.93;3.10;;;;;;;30.55;23.97;102100.34;5057698;28;20077;-84
2022/07/18 10:52:27;;;;;;;6.47;3.28;;;;;;;30.45;22.68;102092.50;5034006;28;20064;-84
2022/07/18 10:55:05;;;;;;;6.05;3.28;;;;;;;30.21;23.66;102096.06;5035315;28;20025;-84
2022/07/18 10:57:43;;;;;;;5.20;3.10;;;;;;;30.52;23.69;102092.66;5041255;28;20045;-86
2022/07/18 11:00:14;;;;;;;8.15;3.47;;;;;;;30.61;23.43;102093.50;5033476;28;20029;-85
2022/07/18 11:03:03;;;;;;;4.80;2.90;;;;;;;30.33;23.18;102075.19;5033147;28;20031;-87
2022/07/18 11:05:29;;;;;;;5.40;3.55;;;;;;;30.30;22.84;102088.88;5034611;28;20506;-82
2022/07/18 11:07:57;;;;;;;4.20;2.97;;;;;;;30.14;23.50;102081.72;5034101;28;20025;-83
2022/07/18 11:10:45;;;;;;;5.65;3.10;;;;;;;30.16;23.57;102077.03;5036053;28;20025;-92
2022/07/18 11:13:28;;;;;;;5.60;3.00;;;;;;;30.29;23.21;102081.06;5050554;28;20036;-89
2022/07/18 11:16:18;;;;;;;5.53;3.15;;;;;;;30.31;23.60;102068.34;5036843;28;20037;-91
2022/07/18 11:18:43;;;;;;;5.82;3.20;;;;;;;30.36;23.63;102066.81;5043438;28;20048;-87
2022/07/18 11:21:36;;;;;;;6.30;2.80;;;;;;;30.37;23.21;102068.50;5038330;28;20025;-83
2022/07/18 11:24:09;;;;;;;5.88;3.25;;;;;;;30.35;23.29;102054.50;5039415;28;20032;-85
2022/07/18 11:26:36;;;;;;;9.55;3.15;;;;;;;30.59;23.92;102055.44;5040563;28;20037;-90
2022/07/18 11:29:04;;;;;;;7.15;3.70;;;;;;;30.65;23.74;102042.25;5049013;28;20021;-89
2022/07/18 11:31:30;;;;;;;6.40;3.38;;;;;;;30.85;23.42;102040.00;5022126;28;20098;-95
2022/07/18 11:33:58;;;;;;;7.82;3.25;;;;;;;30.91;23.52;102038.47;5013510;28;20361;-87
2022/07/18 11:36:28;;;;;;;3.47;2.78;;;;;;;30.97;23.06;102035.09;5028287;28;20040;-90
2022/07/18 11:38:55;;;;;;;4.05;2.90;;;;;;;31.04;23.29;102036.88;5029045;28;20025;-87
2022/07/18 11:41:21;;;;;;;5.90;3.15;;;;;;;30.93;22.67;102037.28;5031926;28;20044;-84
2022/07/18 11:43:47;;;;;;;6.25;2.95;;;;;;;30.69;22.96;102037.41;5031618;28;20040;-84
2022/07/18 11:46:14;;;;;;;4.28;3.28;;;;;;;30.88;23.15;102020.13;5032939;28;20501;-96
2022/07/18 11:48:40;;;;;;;6.07;3.33;;;;;;;30.76;24.56;102003.63;5016911;28;20025;-86
2022/07/18 11:51:17;;;;;;;8.15;3.20;;;;;;;31.10;23.28;102017.47;5029758;28;20036;-85
2022/07/18 11:53:50;;;;;;;8.15;2.88;;;;;;;31.07;22.90;102009.81;5030419;28;20028;-95
2022/07/18 11:56:16;;;;;;;5.43;2.92;;;;;;;31.07;22.76;102006.28;5026245;28;20029;-89
2022/07/18 11:58:42;;;;;;;6.75;3.08;;;;;;;31.13;23.71;102016.28;5033266;28;20021;-95
2022/07/18 12:01:08;;;;;;;7.53;2.55;;;;;;;31.11;23.36;102007.63;5014342;28;20478;-95
2022/07/18 12:03:34;;;;;;;5.22;2.85;;;;;;;31.20;23.22;102005.72;5028907;28;20071;-85
2022/07/18 12:06:12;;;;;;;3.22;2.30;;;;;;;31.10;23.43;102000.63;5047651;28;20421;-85
2022/07/18 12:08:41;;;;;;;6.60;2.90;;;;;;;30.89;23.26;101987.88;5034021;28;20025;-93
2022/07/18 12:11:21;;;;;;;7.45;2.58;;;;;;;30.83;23.35;102001.94;5050062;28;20108;-84
2022/07/18 12:13:55;;;;;;;8.82;3.00;;;;;;;30.99;23.53;102001.03;5046458;28;20095;-87
2022/07/18 12:16:40;;;;;;;5.45;2.45;;;;;;;30.83;23.38;101980.56;5030136;28;20033;-83
2022/07/18 12:19:13;;;;;;;5.30;2.70;;;;;;;30.92;23.01;101979.50;5047860;28;20042;-85
2022/07/18 12:21:48;;;;;;;4.95;2.70;;;;;;;30.93;23.13;101991.84;5030465;28;20466;-84
2022/07/18 12:24:37;;;;;;;3.30;2.50;;;;;;;31.13;22.37;101974.34;5047344;28;20037;-86
2022/07/18 12:27:18;;;;;;;7.40;2.80;;;;;;;31.30;22.45;101976.94;5031811;28;20421;-87
2022/07/18 12:30:07;;;;;;;5.88;2.67;;;;;;;31.60;22.06;101986.72;5030945;28;20025;-90
2022/07/18 12:32:39;;;;;;;5.07;2.47;;;;;;;31.43;22.67;101979.00;5048825;28;20028;-91
2022/07/18 12:35:35;;;;;;;5.45;2.67;;;;;;;31.36;22.54;101966.34;5031821;28;20029;-92
2022/07/18 12:38:10;;;;;;;4.32;2.72;;;;;;;31.32;22.67;101956.22;5021292;28;20464;-85
2022/07/18 12:40:39;;;;;;;6.90;2.45;;;;;;;31.31;22.51;101973.28;5054326;28;20025;-83
2022/07/18 12:43:12;;;;;;;4.90;2.40;;;;;;;31.04;22.49;101943.34;5053680;28;20111;-89
2022/07/18 12:45:37;;;;;;;12.95;2.85;;;;;;;31.00;22.43;101943.91;5052929;28;20029;-85
2022/07/18 12:48:04;;;;;;;11.10;4.95;;;;;;;31.11;22.13;101944.31;5035380;28;20029;-85
2022/07/18 12:50:29;;;;;;;7.97;2.97;;;;;;;31.02;22.85;101941.88;5035668;28;20032;-84
2022/07/18 12:52:56;;;;;;;7.05;2.67;;;;;;;30.77;22.27;101925.97;5052729;28;20033;-85
2022/07/18 12:55:22;;;;;;;4.10;2.50;;;;;;;31.03;22.56;101927.50;5052711;28;20112;-86
2022/07/18 12:57:48;;;;;;;4.63;2.45;;;;;;;30.94;22.75;101925.88;5035963;28;20029;-86
2022/07/18 13:00:14;;;;;;;5.80;2.60;;;;;;;30.98;23.01;101944.06;5053776;28;20052;-84
2022/07/18 13:02:42;;;;;;;4.28;2.50;;;;;;;30.81;22.92;101938.00;5035673;28;20103;-85
2022/07/18 13:05:08;;;;;;;5.53;3.25;;;;;;;30.86;23.65;101934.78;5052234;28;20032;-84
2022/07/18 13:07:34;;;;;;;4.72;2.80;;;;;;;30.85;23.50;101938.47;5053336;28;20347;-85
2022/07/18 13:09:59;;;;;;;6.72;2.63;;;;;;;30.78;23.06;101943.69;5050088;28;20072;-87
2022/07/18 13:12:25;;;;;;;3.63;2.63;;;;;;;30.67;23.73;101929.88;5052846;28;20021;-88
